sensor_id;sensor_type;location;lat;lon;timestamp;P1;durP1;ratioP1;P2;durP2;ratioP2
55065;SDS011;40964;42.114;24.220;2022-09-13T00:00:27;8.55;;;4.63;;
55065;SDS011;40964;42.114;24.220;2022-09-13T00:02:52;8.00;;;4.28;;
55065;SDS011;40964;42.114;24.220;2022-09-13T00:05:18;5.53;;;4.20;;
55065;SDS011;40964;42.114;24.220;2022-09-13T00:07:43;6.97;;;4.18;;
55065;SDS011;40964;42.114;24.220;2022-09-13T00:10:09;4.40;;;3.50;;
55065;SDS011;40964;42.114;24.220;2022-09-13T00:12:34;7.20;;;3.95;;
55065;SDS011;40964;42.114;24.220;2022-09-13T00:15:00;5.13;;;3.90;;
55065;SDS011;40964;42.114;24.220;2022-09-13T00:17:25;5.20;;;3.78;;
55065;SDS011;40964;42.114;24.220;2022-09-13T00:19:51;6.90;;;3.97;;
55065;SDS011;40964;42.114;24.220;2022-09-13T00:22:16;5.60;;;4.00;;
55065;SDS011;40964;42.114;24.220;2022-09-13T00:24:42;4.40;;;3.75;;
55065;SDS011;40964;42.114;24.220;2022-09-13T00:27:07;6.55;;;4.10;;
55065;SDS011;40964;42.114;24.220;2022-09-13T00:29:33;6.78;;;4.00;;
55065;SDS011;40964;42.114;24.220;2022-09-13T00:31:58;6.60;;;3.92;;
55065;SDS011;40964;42.114;24.220;2022-09-13T00:34:24;5.10;;;3.75;;
55065;SDS011;40964;42.114;24.220;2022-09-13T00:36:49;4.68;;;3.58;;
55065;SDS011;40964;42.114;24.220;2022-09-13T00:39:15;4.53;;;3.50;;
55065;SDS011;40964;42.114;24.220;2022-09-13T00:41:40;4.80;;;3.63;;
55065;SDS011;40964;42.114;24.220;2022-09-13T00:44:41;6.25;;;3.83;;
55065;SDS011;40964;42.114;24.220;2022-09-13T00:47:10;5.75;;;3.88;;
55065;SDS011;40964;42.114;24.220;2022-09-13T00:49:39;10.25;;;3.97;;
55065;SDS011;40964;42.114;24.220;2022-09-13T00:52:13;4.65;;;3.47;;
55065;SDS011;40964;42.114;24.220;2022-09-13T00:54:44;8.02;;;3.78;;
55065;SDS011;40964;42.114;24.220;2022-09-13T00:57:15;4.82;;;3.75;;
55065;SDS011;40964;42.114;24.220;2022-09-13T00:59:57;5.80;;;3.88;;
55065;SDS011;40964;42.114;24.220;2022-09-13T01:02:31;3.60;;;3.10;;
55065;SDS011;40964;42.114;24.220;2022-09-13T01:04:57;4.43;;;3.60;;
55065;SDS011;40964;42.114;24.220;2022-09-13T01:07:22;5.90;;;4.03;;
55065;SDS011;40964;42.114;24.220;2022-09-13T01:09:48;5.97;;;3.67;;
55065;SDS011;40964;42.114;24.220;2022-09-13T01:14:50;4.63;;;3.50;;
55065;SDS011;40964;42.114;24.220;2022-09-13T01:17:16;5.90;;;3.90;;
55065;SDS011;40964;42.114;24.220;2022-09-13T01:19:42;5.18;;;3.70;;
55065;SDS011;40964;42.114;24.220;2022-09-13T01:24:57;5.15;;;3.38;;
55065;SDS011;40964;42.114;24.220;2022-09-13T01:28:01;5.05;;;3.40;;
55065;SDS011;40964;42.114;24.220;2022-09-13T01:30:35;4.82;;;3.63;;
55065;SDS011;40964;42.114;24.220;2022-09-13T01:56:09;4.95;;;3.92;;
55065;SDS011;40964;42.114;24.220;2022-09-13T01:58:44;5.00;;;3.17;;
55065;SDS011;40964;42.114;24.220;2022-09-13T02:01:17;4.22;;;2.80;;
55065;SDS011;40964;42.114;24.220;2022-09-13T02:04:03;4.00;;;3.03;;
55065;SDS011;40964;42.114;24.220;2022-09-13T02:06:37;3.92;;;2.40;;
55065;SDS011;40964;42.114;24.220;2022-09-13T02:09:13;2.85;;;2.30;;
55065;SDS011;40964;42.114;24.220;2022-09-13T02:11:43;2.70;;;2.35;;
55065;SDS011;40964;42.114;24.220;2022-09-13T02:14:20;8.10;;;2.38;;
55065;SDS011;40964;42.114;24.220;2022-09-13T02:16:56;3.78;;;2.35;;
55065;SDS011;40964;42.114;24.220;2022-09-13T02:19:35;8.20;;;2.53;;
55065;SDS011;40964;42.114;24.220;2022-09-13T02:22:06;2.78;;;2.28;;
55065;SDS011;40964;42.114;24.220;2022-09-13T02:24:37;2.90;;;2.53;;
55065;SDS011;40964;42.114;24.220;2022-09-13T02:27:18;3.83;;;2.75;;
55065;SDS011;40964;42.114;24.220;2022-09-13T02:29:46;4.60;;;2.60;;
55065;SDS011;40964;42.114;24.220;2022-09-13T02:32:24;4.72;;;3.10;;
55065;SDS011;40964;42.114;24.220;2022-09-13T02:37:28;6.32;;;3.55;;
55065;SDS011;40964;42.114;24.220;2022-09-13T02:40:02;5.15;;;3.70;;
55065;SDS011;40964;42.114;24.220;2022-09-13T02:42:38;7.88;;;4.20;;
55065;SDS011;40964;42.114;24.220;2022-09-13T02:45:08;5.60;;;3.92;;
55065;SDS011;40964;42.114;24.220;2022-09-13T02:50:18;7.38;;;3.95;;
55065;SDS011;40964;42.114;24.220;2022-09-13T02:55:30;6.60;;;3.95;;
55065;SDS011;40964;42.114;24.220;2022-09-13T03:01:20;6.53;;;3.53;;
55065;SDS011;40964;42.114;24.220;2022-09-13T03:03:45;7.10;;;4.10;;
55065;SDS011;40964;42.114;24.220;2022-09-13T03:06:11;5.72;;;3.92;;
55065;SDS011;40964;42.114;24.220;2022-09-13T03:08:37;7.00;;;3.97;;
55065;SDS011;40964;42.114;24.220;2022-09-13T03:13:44;10.27;;;4.45;;
55065;SDS011;40964;42.114;24.220;2022-09-13T03:17:02;10.35;;;4.35;;
55065;SDS011;40964;42.114;24.220;2022-09-13T03:35:25;8.13;;;3.72;;
55065;SDS011;40964;42.114;24.220;2022-09-13T03:38:05;4.95;;;3.58;;
55065;SDS011;40964;42.114;24.220;2022-09-13T03:40:40;5.65;;;3.72;;
55065;SDS011;40964;42.114;24.220;2022-09-13T03:45:59;6.13;;;3.53;;
55065;SDS011;40964;42.114;24.220;2022-09-13T03:48:52;7.10;;;4.05;;
55065;SDS011;40964;42.114;24.220;2022-09-13T03:51:19;6.47;;;3.92;;
55065;SDS011;40964;42.114;24.220;2022-09-13T03:53:47;6.28;;;3.88;;
55065;SDS011;40964;42.114;24.220;2022-09-13T03:56:20;6.47;;;4.00;;
55065;SDS011;40964;42.114;24.220;2022-09-13T03:58:46;7.22;;;3.97;;
55065;SDS011;40964;42.114;24.220;2022-09-13T04:01:12;5.25;;;3.83;;
55065;SDS011;40964;42.114;24.220;2022-09-13T04:03:40;8.15;;;3.45;;
55065;SDS011;40964;42.114;24.220;2022-09-13T04:06:06;3.90;;;2.88;;
55065;SDS011;40964;42.114;24.220;2022-09-13T04:08:31;7.45;;;3.72;;
55065;SDS011;40964;42.114;24.220;2022-09-13T04:11:00;9.30;;;3.95;;
55065;SDS011;40964;42.114;24.220;2022-09-13T04:13:25;7.57;;;4.18;;
55065;SDS011;40964;42.114;24.220;2022-09-13T04:15:51;6.32;;;3.53;;
55065;SDS011;40964;42.114;24.220;2022-09-13T04:18:17;5.65;;;4.10;;
55065;SDS011;40964;42.114;24.220;2022-09-13T04:20:42;5.80;;;3.92;;
55065;SDS011;40964;42.114;24.220;2022-09-13T04:23:08;10.75;;;4.43;;
55065;SDS011;40964;42.114;24.220;2022-09-13T04:25:36;6.03;;;3.80;;
55065;SDS011;40964;42.114;24.220;2022-09-13T04:28:03;7.10;;;4.72;;
55065;SDS011;40964;42.114;24.220;2022-09-13T04:30:28;7.43;;;4.18;;
55065;SDS011;40964;42.114;24.220;2022-09-13T04:32:55;9.07;;;4.32;;
55065;SDS011;40964;42.114;24.220;2022-09-13T04:35:22;6.13;;;4.15;;
55065;SDS011;40964;42.114;24.220;2022-09-13T04:37:48;6.10;;;4.13;;
55065;SDS011;40964;42.114;24.220;2022-09-13T04:40:13;7.00;;;4.35;;
55065;SDS011;40964;42.114;24.220;2022-09-13T04:42:39;8.43;;;3.97;;
55065;SDS011;40964;42.114;24.220;2022-09-13T04:45:05;6.97;;;4.13;;
55065;SDS011;40964;42.114;24.220;2022-09-13T04:47:30;6.00;;;4.22;;
55065;SDS011;40964;42.114;24.220;2022-09-13T04:49:56;4.22;;;3.22;;
55065;SDS011;40964;42.114;24.220;2022-09-13T04:52:22;4.70;;;3.40;;
55065;SDS011;40964;42.114;24.220;2022-09-13T04:54:48;5.75;;;3.47;;
55065;SDS011;40964;42.114;24.220;2022-09-13T04:57:14;5.00;;;2.72;;
55065;SDS011;40964;42.114;24.220;2022-09-13T04:59:41;5.90;;;3.33;;
55065;SDS011;40964;42.114;24.220;2022-09-13T05:02:06;4.28;;;3.42;;
55065;SDS011;40964;42.114;24.220;2022-09-13T05:04:32;4.72;;;3.13;;
55065;SDS011;40964;42.114;24.220;2022-09-13T05:06:58;3.92;;;2.90;;
55065;SDS011;40964;42.114;24.220;2022-09-13T05:09:24;4.35;;;2.90;;
55065;SDS011;40964;42.114;24.220;2022-09-13T05:11:50;4.05;;;2.63;;
55065;SDS011;40964;42.114;24.220;2022-09-13T05:14:15;3.42;;;2.67;;
55065;SDS011;40964;42.114;24.220;2022-09-13T05:16:41;2.63;;;2.28;;
55065;SDS011;40964;42.114;24.220;2022-09-13T05:19:07;3.00;;;2.70;;
55065;SDS011;40964;42.114;24.220;2022-09-13T05:21:34;3.58;;;2.50;;
55065;SDS011;40964;42.114;24.220;2022-09-13T05:23:59;4.22;;;2.90;;
55065;SDS011;40964;42.114;24.220;2022-09-13T05:26:26;4.50;;;2.55;;
55065;SDS011;40964;42.114;24.220;2022-09-13T05:28:56;3.55;;;2.67;;
55065;SDS011;40964;42.114;24.220;2022-09-13T05:31:24;3.92;;;2.80;;
55065;SDS011;40964;42.114;24.220;2022-09-13T05:33:53;3.42;;;2.70;;
55065;SDS011;40964;42.114;24.220;2022-09-13T05:36:21;4.95;;;3.20;;
55065;SDS011;40964;42.114;24.220;2022-09-13T05:38:47;3.03;;;2.40;;
55065;SDS011;40964;42.114;24.220;2022-09-13T05:41:12;5.57;;;3.20;;
55065;SDS011;40964;42.114;24.220;2022-09-13T05:43:38;9.13;;;3.20;;
55065;SDS011;40964;42.114;24.220;2022-09-13T05:46:04;4.55;;;3.03;;
55065;SDS011;40964;42.114;24.220;2022-09-13T05:48:30;7.47;;;2.65;;
55065;SDS011;40964;42.114;24.220;2022-09-13T05:51:02;9.50;;;2.85;;
55065;SDS011;40964;42.114;24.220;2022-09-13T05:53:30;3.90;;;2.42;;
55065;SDS011;40964;42.114;24.220;2022-09-13T05:55:56;3.00;;;2.30;;
55065;SDS011;40964;42.114;24.220;2022-09-13T05:58:21;5.00;;;2.80;;
55065;SDS011;40964;42.114;24.220;2022-09-13T06:00:54;5.00;;;2.55;;
55065;SDS011;40964;42.114;24.220;2022-09-13T06:03:21;3.95;;;2.92;;
55065;SDS011;40964;42.114;24.220;2022-09-13T06:05:47;6.22;;;2.83;;
55065;SDS011;40964;42.114;24.220;2022-09-13T06:08:13;5.03;;;3.03;;
55065;SDS011;40964;42.114;24.220;2022-09-13T06:10:39;3.83;;;2.88;;
55065;SDS011;40964;42.114;24.220;2022-09-13T06:13:04;2.72;;;2.10;;
55065;SDS011;40964;42.114;24.220;2022-09-13T06:15:30;3.55;;;2.85;;
55065;SDS011;40964;42.114;24.220;2022-09-13T06:17:56;3.30;;;2.80;;
55065;SDS011;40964;42.114;24.220;2022-09-13T06:20:22;4.47;;;2.30;;
55065;SDS011;40964;42.114;24.220;2022-09-13T06:22:48;4.90;;;2.60;;
55065;SDS011;40964;42.114;24.220;2022-09-13T06:25:13;3.17;;;2.45;;
55065;SDS011;40964;42.114;24.220;2022-09-13T06:27:39;2.67;;;2.40;;
55065;SDS011;40964;42.114;24.220;2022-09-13T06:30:06;3.42;;;2.95;;
55065;SDS011;40964;42.114;24.220;2022-09-13T06:32:33;3.95;;;2.65;;
55065;SDS011;40964;42.114;24.220;2022-09-13T06:34:59;3.00;;;2.55;;
55065;SDS011;40964;42.114;24.220;2022-09-13T06:37:25;4.10;;;2.58;;
55065;SDS011;40964;42.114;24.220;2022-09-13T06:39:50;3.42;;;2.45;;
55065;SDS011;40964;42.114;24.220;2022-09-13T06:42:16;5.25;;;2.35;;
55065;SDS011;40964;42.114;24.220;2022-09-13T06:44:41;2.88;;;2.53;;
55065;SDS011;40964;42.114;24.220;2022-09-13T06:47:07;5.10;;;2.67;;
55065;SDS011;40964;42.114;24.220;2022-09-13T06:49:33;3.30;;;1.98;;
55065;SDS011;40964;42.114;24.220;2022-09-13T06:51:58;4.78;;;1.83;;
55065;SDS011;40964;42.114;24.220;2022-09-13T06:54:24;5.07;;;2.63;;
55065;SDS011;40964;42.114;24.220;2022-09-13T06:56:49;4.43;;;2.60;;
55065;SDS011;40964;42.114;24.220;2022-09-13T06:59:15;4.45;;;2.92;;
55065;SDS011;40964;42.114;24.220;2022-09-13T07:01:41;3.88;;;2.67;;
55065;SDS011;40964;42.114;24.220;2022-09-13T07:04:25;3.72;;;2.72;;
55065;SDS011;40964;42.114;24.220;2022-09-13T07:06:55;4.40;;;2.80;;
55065;SDS011;40964;42.114;24.220;2022-09-13T07:09:22;3.58;;;2.83;;
55065;SDS011;40964;42.114;24.220;2022-09-13T07:11:49;3.75;;;2.75;;
55065;SDS011;40964;42.114;24.220;2022-09-13T07:14:17;5.47;;;2.63;;
55065;SDS011;40964;42.114;24.220;2022-09-13T07:16:45;3.67;;;3.10;;
55065;SDS011;40964;42.114;24.220;2022-09-13T07:19:18;5.70;;;3.00;;
55065;SDS011;40964;42.114;24.220;2022-09-13T07:21:48;4.18;;;3.05;;
55065;SDS011;40964;42.114;24.220;2022-09-13T07:24:15;3.95;;;3.20;;
55065;SDS011;40964;42.114;24.220;2022-09-13T07:26:41;4.53;;;3.10;;
55065;SDS011;40964;42.114;24.220;2022-09-13T07:29:08;3.70;;;2.70;;
55065;SDS011;40964;42.114;24.220;2022-09-13T07:31:40;4.93;;;3.13;;
55065;SDS011;40964;42.114;24.220;2022-09-13T07:34:10;5.32;;;3.10;;
55065;SDS011;40964;42.114;24.220;2022-09-13T07:36:37;3.45;;;2.75;;
55065;SDS011;40964;42.114;24.220;2022-09-13T07:39:03;3.78;;;2.83;;
55065;SDS011;40964;42.114;24.220;2022-09-13T07:41:31;3.85;;;2.80;;
55065;SDS011;40964;42.114;24.220;2022-09-13T07:43:57;4.95;;;2.58;;
55065;SDS011;40964;42.114;24.220;2022-09-13T07:46:26;3.78;;;2.55;;
55065;SDS011;40964;42.114;24.220;2022-09-13T07:48:53;2.53;;;2.33;;
55065;SDS011;40964;42.114;24.220;2022-09-13T07:51:21;3.38;;;2.42;;
55065;SDS011;40964;42.114;24.220;2022-09-13T07:53:49;3.35;;;2.47;;
55065;SDS011;40964;42.114;24.220;2022-09-13T07:56:19;2.47;;;2.25;;
55065;SDS011;40964;42.114;24.220;2022-09-13T07:58:48;2.42;;;2.00;;
55065;SDS011;40964;42.114;24.220;2022-09-13T08:01:18;3.63;;;1.90;;
55065;SDS011;40964;42.114;24.220;2022-09-13T08:03:49;4.15;;;2.00;;
55065;SDS011;40964;42.114;24.220;2022-09-13T08:06:17;2.17;;;1.80;;
55065;SDS011;40964;42.114;24.220;2022-09-13T08:08:43;1.83;;;1.73;;
55065;SDS011;40964;42.114;24.220;2022-09-13T08:11:14;2.78;;;2.10;;
55065;SDS011;40964;42.114;24.220;2022-09-13T08:13:48;1.80;;;1.70;;
55065;SDS011;40964;42.114;24.220;2022-09-13T08:16:16;3.00;;;2.28;;
55065;SDS011;40964;42.114;24.220;2022-09-13T08:18:43;2.33;;;1.83;;
55065;SDS011;40964;42.114;24.220;2022-09-13T08:21:13;2.55;;;2.20;;
55065;SDS011;40964;42.114;24.220;2022-09-13T08:23:39;2.28;;;1.92;;
55065;SDS011;40964;42.114;24.220;2022-09-13T08:26:05;3.08;;;1.95;;
55065;SDS011;40964;42.114;24.220;2022-09-13T08:28:32;3.97;;;2.20;;
55065;SDS011;40964;42.114;24.220;2022-09-13T08:31:06;2.42;;;2.20;;
55065;SDS011;40964;42.114;24.220;2022-09-13T08:33:33;2.17;;;1.98;;
55065;SDS011;40964;42.114;24.220;2022-09-13T08:35:59;2.42;;;2.22;;
55065;SDS011;40964;42.114;24.220;2022-09-13T08:38:25;2.17;;;1.98;;
55065;SDS011;40964;42.114;24.220;2022-09-13T08:41:18;3.13;;;1.92;;
55065;SDS011;40964;42.114;24.220;2022-09-13T08:46:47;4.78;;;2.00;;
55065;SDS011;40964;42.114;24.220;2022-09-13T08:49:19;3.30;;;1.77;;
55065;SDS011;40964;42.114;24.220;2022-09-13T08:51:55;1.83;;;1.70;;
55065;SDS011;40964;42.114;24.220;2022-09-13T08:54:24;1.92;;;1.60;;
55065;SDS011;40964;42.114;24.220;2022-09-13T08:56:58;2.50;;;2.03;;
55065;SDS011;40964;42.114;24.220;2022-09-13T09:04:59;1.63;;;1.25;;
55065;SDS011;40964;42.114;24.220;2022-09-13T09:07:37;1.77;;;1.50;;
55065;SDS011;40964;42.114;24.220;2022-09-13T09:10:14;1.73;;;1.30;;
55065;SDS011;40964;42.114;24.220;2022-09-13T09:15:30;2.63;;;1.30;;
55065;SDS011;40964;42.114;24.220;2022-09-13T09:21:11;2.38;;;1.30;;
55065;SDS011;40964;42.114;24.220;2022-09-13T09:23:53;1.27;;;1.17;;
55065;SDS011;40964;42.114;24.220;2022-09-13T09:26:20;1.60;;;1.50;;
55065;SDS011;40964;42.114;24.220;2022-09-13T09:28:54;1.65;;;1.42;;
55065;SDS011;40964;42.114;24.220;2022-09-13T09:34:07;1.67;;;1.35;;
55065;SDS011;40964;42.114;24.220;2022-09-13T09:39:17;1.67;;;1.33;;
55065;SDS011;40964;42.114;24.220;2022-09-13T09:41:43;3.08;;;1.42;;
55065;SDS011;40964;42.114;24.220;2022-09-13T09:44:16;1.48;;;1.38;;
55065;SDS011;40964;42.114;24.220;2022-09-13T09:46:49;1.63;;;1.20;;
55065;SDS011;40964;42.114;24.220;2022-09-13T09:49:26;1.67;;;1.25;;
55065;SDS011;40964;42.114;24.220;2022-09-13T09:52:17;1.77;;;1.48;;
55065;SDS011;40964;42.114;24.220;2022-09-13T09:54:48;2.00;;;1.48;;
55065;SDS011;40964;42.114;24.220;2022-09-13T09:57:14;3.13;;;1.75;;
55065;SDS011;40964;42.114;24.220;2022-09-13T09:59:43;1.98;;;1.60;;
55065;SDS011;40964;42.114;24.220;2022-09-13T10:02:15;2.10;;;1.48;;
55065;SDS011;40964;42.114;24.220;2022-09-13T10:04:52;2.45;;;1.48;;
55065;SDS011;40964;42.114;24.220;2022-09-13T10:07:38;1.65;;;1.42;;
55065;SDS011;40964;42.114;24.220;2022-09-13T10:10:18;2.10;;;1.60;;
55065;SDS011;40964;42.114;24.220;2022-09-13T10:13:06;1.10;;;1.00;;
55065;SDS011;40964;42.114;24.220;2022-09-13T10:15:50;2.95;;;1.45;;
55065;SDS011;40964;42.114;24.220;2022-09-13T10:18:22;1.42;;;1.33;;
55065;SDS011;40964;42.114;24.220;2022-09-13T10:23:34;1.58;;;1.10;;
55065;SDS011;40964;42.114;24.220;2022-09-13T10:26:13;1.48;;;1.30;;
55065;SDS011;40964;42.114;24.220;2022-09-13T10:31:14;2.10;;;1.30;;
55065;SDS011;40964;42.114;24.220;2022-09-13T10:34:03;2.25;;;1.20;;
55065;SDS011;40964;42.114;24.220;2022-09-13T10:36:31;1.05;;;0.95;;
55065;SDS011;40964;42.114;24.220;2022-09-13T10:39:00;1.73;;;1.23;;
55065;SDS011;40964;42.114;24.220;2022-09-13T10:41:32;1.10;;;1.00;;
55065;SDS011;40964;42.114;24.220;2022-09-13T10:44:03;1.25;;;1.10;;
55065;SDS011;40964;42.114;24.220;2022-09-13T10:46:33;2.40;;;1.00;;
55065;SDS011;40964;42.114;24.220;2022-09-13T10:49:03;3.45;;;1.20;;
55065;SDS011;40964;42.114;24.220;2022-09-13T10:51:35;1.20;;;1.10;;
55065;SDS011;40964;42.114;24.220;2022-09-13T10:56:35;1.50;;;1.30;;
55065;SDS011;40964;42.114;24.220;2022-09-13T11:04:51;1.42;;;1.30;;
55065;SDS011;40964;42.114;24.220;2022-09-13T11:16:11;2.15;;;1.50;;
55065;SDS011;40964;42.114;24.220;2022-09-13T11:24:44;1.60;;;1.50;;
55065;SDS011;40964;42.114;24.220;2022-09-13T11:27:16;1.60;;;1.50;;
55065;SDS011;40964;42.114;24.220;2022-09-13T11:32:55;1.40;;;1.30;;
55065;SDS011;40964;42.114;24.220;2022-09-13T11:50:14;1.45;;;1.35;;
55065;SDS011;40964;42.114;24.220;2022-09-13T11:52:23;1.42;;;1.33;;
55065;SDS011;40964;42.114;24.220;2022-09-13T11:57:22;1.60;;;1.50;;
55065;SDS011;40964;42.114;24.220;2022-09-13T12:02:59;1.87;;;1.50;;
55065;SDS011;40964;42.114;24.220;2022-09-13T12:05:33;2.60;;;1.33;;
55065;SDS011;40964;42.114;24.220;2022-09-13T12:13:21;2.28;;;1.20;;
55065;SDS011;40964;42.114;24.220;2022-09-13T12:15:56;1.58;;;1.20;;
55065;SDS011;40964;42.114;24.220;2022-09-13T12:18:27;1.30;;;1.20;;
55065;SDS011;40964;42.114;24.220;2022-09-13T12:21:41;1.40;;;1.30;;
55065;SDS011;40964;42.114;24.220;2022-09-13T12:26:29;1.30;;;1.20;;
55065;SDS011;40964;42.114;24.220;2022-09-13T12:29:12;1.00;;;0.90;;
55065;SDS011;40964;42.114;24.220;2022-09-13T12:31:59;4.55;;;1.50;;
55065;SDS011;40964;42.114;24.220;2022-09-13T12:34:30;1.35;;;1.25;;
55065;SDS011;40964;42.114;24.220;2022-09-13T12:40:07;1.30;;;1.20;;
55065;SDS011;40964;42.114;24.220;2022-09-13T13:00:22;1.30;;;1.20;;
55065;SDS011;40964;42.114;24.220;2022-09-13T13:08:02;1.30;;;1.20;;
55065;SDS011;40964;42.114;24.220;2022-09-13T13:13:13;1.48;;;1.38;;
55065;SDS011;40964;42.114;24.220;2022-09-13T13:18:20;1.48;;;1.27;;
55065;SDS011;40964;42.114;24.220;2022-09-13T13:23:28;1.30;;;1.13;;
55065;SDS011;40964;42.114;24.220;2022-09-13T13:26:12;1.52;;;1.30;;
55065;SDS011;40964;42.114;24.220;2022-09-13T13:29:20;1.35;;;1.25;;
55065;SDS011;40964;42.114;24.220;2022-09-13T13:36:53;2.75;;;1.70;;
55065;SDS011;40964;42.114;24.220;2022-09-13T13:44:56;4.28;;;1.60;;
55065;SDS011;40964;42.114;24.220;2022-09-13T13:50:11;1.55;;;1.20;;
55065;SDS011;40964;42.114;24.220;2022-09-13T13:52:38;1.50;;;1.40;;
55065;SDS011;40964;42.114;24.220;2022-09-13T13:58:09;1.50;;;1.30;;
55065;SDS011;40964;42.114;24.220;2022-09-13T14:00:47;3.60;;;1.42;;
55065;SDS011;40964;42.114;24.220;2022-09-13T14:12:03;1.98;;;1.48;;
55065;SDS011;40964;42.114;24.220;2022-09-13T14:20:16;1.67;;;1.58;;
55065;SDS011;40964;42.114;24.220;2022-09-13T14:22:45;2.05;;;1.70;;
55065;SDS011;40964;42.114;24.220;2022-09-13T14:27:49;3.47;;;1.92;;
55065;SDS011;40964;42.114;24.220;2022-09-13T14:30:24;3.33;;;1.50;;
55065;SDS011;40964;42.114;24.220;2022-09-13T14:32:56;6.25;;;1.75;;
55065;SDS011;40964;42.114;24.220;2022-09-13T14:35:27;1.80;;;1.70;;
55065;SDS011;40964;42.114;24.220;2022-09-13T14:37:55;2.50;;;1.77;;
55065;SDS011;40964;42.114;24.220;2022-09-13T14:40:33;1.60;;;1.50;;
55065;SDS011;40964;42.114;24.220;2022-09-13T14:42:59;4.38;;;1.80;;
55065;SDS011;40964;42.114;24.220;2022-09-13T14:50:23;2.28;;;1.98;;
55065;SDS011;40964;42.114;24.220;2022-09-13T14:52:57;2.30;;;2.10;;
55065;SDS011;40964;42.114;24.220;2022-09-13T14:55:28;2.00;;;1.80;;
55065;SDS011;40964;42.114;24.220;2022-09-13T14:58:05;1.98;;;1.77;;
55065;SDS011;40964;42.114;24.220;2022-09-13T15:00:34;1.70;;;1.60;;
55065;SDS011;40964;42.114;24.220;2022-09-13T15:03:13;2.90;;;2.35;;
55065;SDS011;40964;42.114;24.220;2022-09-13T15:05:40;3.20;;;1.70;;
55065;SDS011;40964;42.114;24.220;2022-09-13T15:08:25;1.30;;;1.20;;
55065;SDS011;40964;42.114;24.220;2022-09-13T15:10:51;4.40;;;1.90;;
55065;SDS011;40964;42.114;24.220;2022-09-13T15:13:20;5.68;;;1.65;;
55065;SDS011;40964;42.114;24.220;2022-09-13T15:15:46;5.18;;;2.10;;
55065;SDS011;40964;42.114;24.220;2022-09-13T15:20:58;4.13;;;2.42;;
55065;SDS011;40964;42.114;24.220;2022-09-13T15:23:41;4.22;;;2.35;;
55065;SDS011;40964;42.114;24.220;2022-09-13T15:26:23;3.92;;;2.58;;
55065;SDS011;40964;42.114;24.220;2022-09-13T15:28:51;6.18;;;3.13;;
55065;SDS011;40964;42.114;24.220;2022-09-13T15:31:22;5.28;;;2.10;;
55065;SDS011;40964;42.114;24.220;2022-09-13T15:36:47;2.30;;;1.88;;
55065;SDS011;40964;42.114;24.220;2022-09-13T15:39:25;2.47;;;2.28;;
55065;SDS011;40964;42.114;24.220;2022-09-13T15:41:55;9.48;;;2.63;;
55065;SDS011;40964;42.114;24.220;2022-09-13T15:44:23;3.67;;;2.30;;
55065;SDS011;40964;42.114;24.220;2022-09-13T15:46:50;4.82;;;2.30;;
55065;SDS011;40964;42.114;24.220;2022-09-13T15:49:28;7.00;;;2.92;;
55065;SDS011;40964;42.114;24.220;2022-09-13T15:51:56;8.50;;;3.40;;
55065;SDS011;40964;42.114;24.220;2022-09-13T15:54:31;5.15;;;3.38;;
55065;SDS011;40964;42.114;24.220;2022-09-13T15:56:57;4.05;;;2.65;;
55065;SDS011;40964;42.114;24.220;2022-09-13T15:59:23;2.00;;;1.80;;
55065;SDS011;40964;42.114;24.220;2022-09-13T16:01:49;2.83;;;1.98;;
55065;SDS011;40964;42.114;24.220;2022-09-13T16:04:16;2.58;;;1.60;;
55065;SDS011;40964;42.114;24.220;2022-09-13T16:06:42;2.28;;;1.80;;
55065;SDS011;40964;42.114;24.220;2022-09-13T16:09:27;2.72;;;2.05;;
55065;SDS011;40964;42.114;24.220;2022-09-13T16:11:52;2.60;;;1.70;;
55065;SDS011;40964;42.114;24.220;2022-09-13T16:14:18;3.85;;;1.60;;
55065;SDS011;40964;42.114;24.220;2022-09-13T16:16:44;4.03;;;2.40;;
55065;SDS011;40964;42.114;24.220;2022-09-13T16:19:21;5.00;;;2.72;;
55065;SDS011;40964;42.114;24.220;2022-09-13T16:21:49;6.35;;;2.08;;
55065;SDS011;40964;42.114;24.220;2022-09-13T16:24:15;2.97;;;1.70;;
55065;SDS011;40964;42.114;24.220;2022-09-13T16:26:41;2.47;;;1.85;;
55065;SDS011;40964;42.114;24.220;2022-09-13T16:29:09;2.03;;;1.70;;
55065;SDS011;40964;42.114;24.220;2022-09-13T16:31:35;2.72;;;2.15;;
55065;SDS011;40964;42.114;24.220;2022-09-13T16:34:00;4.05;;;2.47;;
55065;SDS011;40964;42.114;24.220;2022-09-13T16:36:26;3.40;;;2.45;;
55065;SDS011;40964;42.114;24.220;2022-09-13T16:38:53;2.42;;;2.20;;
55065;SDS011;40964;42.114;24.220;2022-09-13T16:41:20;2.30;;;2.03;;
55065;SDS011;40964;42.114;24.220;2022-09-13T16:43:45;2.65;;;2.35;;
55065;SDS011;40964;42.114;24.220;2022-09-13T16:46:11;6.45;;;2.38;;
55065;SDS011;40964;42.114;24.220;2022-09-13T16:48:37;2.20;;;2.00;;
55065;SDS011;40964;42.114;24.220;2022-09-13T16:51:04;5.80;;;2.17;;
55065;SDS011;40964;42.114;24.220;2022-09-13T16:53:31;2.25;;;1.88;;
55065;SDS011;40964;42.114;24.220;2022-09-13T16:56:05;2.35;;;2.15;;
55065;SDS011;40964;42.114;24.220;2022-09-13T16:58:38;2.97;;;2.10;;
55065;SDS011;40964;42.114;24.220;2022-09-13T17:01:05;6.20;;;3.60;;
55065;SDS011;40964;42.114;24.220;2022-09-13T17:03:34;5.22;;;3.60;;
55065;SDS011;40964;42.114;24.220;2022-09-13T17:06:08;5.57;;;2.88;;
55065;SDS011;40964;42.114;24.220;2022-09-13T17:08:36;6.20;;;3.47;;
55065;SDS011;40964;42.114;24.220;2022-09-13T17:11:04;21.00;;;4.32;;
55065;SDS011;40964;42.114;24.220;2022-09-13T17:13:31;7.10;;;2.80;;
55065;SDS011;40964;42.114;24.220;2022-09-13T17:15:56;4.35;;;2.75;;
55065;SDS011;40964;42.114;24.220;2022-09-13T17:18:22;6.05;;;2.45;;
55065;SDS011;40964;42.114;24.220;2022-09-13T17:20:48;2.40;;;2.20;;
55065;SDS011;40964;42.114;24.220;2022-09-13T17:23:14;2.55;;;1.98;;
55065;SDS011;40964;42.114;24.220;2022-09-13T17:25:41;3.45;;;2.08;;
55065;SDS011;40964;42.114;24.220;2022-09-13T17:28:13;6.65;;;2.28;;
55065;SDS011;40964;42.114;24.220;2022-09-13T17:30:39;3.50;;;2.47;;
55065;SDS011;40964;42.114;24.220;2022-09-13T17:33:05;3.80;;;2.60;;
55065;SDS011;40964;42.114;24.220;2022-09-13T17:35:31;2.65;;;1.85;;
55065;SDS011;40964;42.114;24.220;2022-09-13T17:38:00;6.00;;;2.00;;
55065;SDS011;40964;42.114;24.220;2022-09-13T17:40:27;9.68;;;2.03;;
55065;SDS011;40964;42.114;24.220;2022-09-13T17:42:53;2.22;;;1.95;;
55065;SDS011;40964;42.114;24.220;2022-09-13T17:45:20;3.88;;;2.33;;
55065;SDS011;40964;42.114;24.220;2022-09-13T17:47:46;2.92;;;2.25;;
55065;SDS011;40964;42.114;24.220;2022-09-13T17:50:12;2.30;;;2.10;;
55065;SDS011;40964;42.114;24.220;2022-09-13T17:52:38;8.35;;;2.38;;
55065;SDS011;40964;42.114;24.220;2022-09-13T17:55:03;5.47;;;2.25;;
55065;SDS011;40964;42.114;24.220;2022-09-13T17:57:29;5.95;;;2.40;;
55065;SDS011;40964;42.114;24.220;2022-09-13T17:59:54;6.55;;;2.40;;
55065;SDS011;40964;42.114;24.220;2022-09-13T18:02:20;3.78;;;2.40;;
55065;SDS011;40964;42.114;24.220;2022-09-13T18:04:46;6.95;;;2.35;;
55065;SDS011;40964;42.114;24.220;2022-09-13T18:07:14;5.63;;;2.58;;
55065;SDS011;40964;42.114;24.220;2022-09-13T18:09:40;6.03;;;2.78;;
55065;SDS011;40964;42.114;24.220;2022-09-13T18:12:06;3.92;;;2.97;;
55065;SDS011;40964;42.114;24.220;2022-09-13T18:14:31;4.85;;;2.75;;
55065;SDS011;40964;42.114;24.220;2022-09-13T18:16:57;3.78;;;2.83;;
55065;SDS011;40964;42.114;24.220;2022-09-13T18:19:23;6.05;;;2.50;;
55065;SDS011;40964;42.114;24.220;2022-09-13T18:21:49;5.00;;;2.40;;
55065;SDS011;40964;42.114;24.220;2022-09-13T18:24:14;3.53;;;2.55;;
55065;SDS011;40964;42.114;24.220;2022-09-13T18:26:40;3.47;;;2.40;;